sensor_id;sensor_type;location;lat;lon;timestamp;temperature;humidity
18648;DHT22;9453;50.294;18.644;2022-11-04T05:02:19;10.60;95.20
18648;DHT22;9453;50.294;18.644;2022-11-04T05:04:46;10.60;95.20
18648;DHT22;9453;50.294;18.644;2022-11-04T05:07:13;10.50;95.10
18648;DHT22;9453;50.294;18.644;2022-11-04T05:09:40;10.50;95.10
18648;DHT22;9453;50.294;18.644;2022-11-04T05:12:07;10.50;95.10
18648;DHT22;9453;50.294;18.644;2022-11-04T05:14:35;10.40;95.40
18648;DHT22;9453;50.294;18.644;2022-11-04T05:17:01;10.40;95.60
18648;DHT22;9453;50.294;18.644;2022-11-04T05:19:30;10.40;95.60
18648;DHT22;9453;50.294;18.644;2022-11-04T05:43:50;10.60;95.60
18648;DHT22;9453;50.294;18.644;2022-11-04T05:46:17;10.60;95.50
18648;DHT22;9453;50.294;18.644;2022-11-04T05:48:44;10.70;95.50
18648;DHT22;9453;50.294;18.644;2022-11-04T05:51:12;10.50;95.60
18648;DHT22;9453;50.294;18.644;2022-11-04T05:53:39;10.60;95.50
18648;DHT22;9453;50.294;18.644;2022-11-04T05:56:07;10.60;95.20
18648;DHT22;9453;50.294;18.644;2022-11-04T05:58:34;10.60;95.40
18648;DHT22;9453;50.294;18.644;2022-11-04T06:01:22;10.60;95.20
18648;DHT22;9453;50.294;18.644;2022-11-04T06:03:50;10.70;95.30
18648;DHT22;9453;50.294;18.644;2022-11-04T06:06:17;10.70;95.10
18648;DHT22;9453;50.294;18.644;2022-11-04T06:08:44;10.80;94.90
18648;DHT22;9453;50.294;18.644;2022-11-04T06:11:11;10.90;95.00
18648;DHT22;9453;50.294;18.644;2022-11-04T06:13:38;10.90;94.90
18648;DHT22;9453;50.294;18.644;2022-11-04T06:16:06;10.90;94.80
18648;DHT22;9453;50.294;18.644;2022-11-04T06:18:34;10.90;95.00
18648;DHT22;9453;50.294;18.644;2022-11-04T06:21:20;10.90;94.70
18648;DHT22;9453;50.294;18.644;2022-11-04T06:23:51;10.90;95.00
18648;DHT22;9453;50.294;18.644;2022-11-04T06:26:18;10.90;95.00
18648;DHT22;9453;50.294;18.644;2022-11-04T06:28:46;11.00;95.00
18648;DHT22;9453;50.294;18.644;2022-11-04T06:31:14;11.00;94.90
18648;DHT22;9453;50.294;18.644;2022-11-04T06:33:42;11.10;95.00
18648;DHT22;9453;50.294;18.644;2022-11-04T06:36:11;11.00;94.90
18648;DHT22;9453;50.294;18.644;2022-11-04T06:38:38;11.00;94.80
18648;DHT22;9453;50.294;18.644;2022-11-04T06:41:07;11.10;94.80
18648;DHT22;9453;50.294;18.644;2022-11-04T06:43:34;11.10;94.80
18648;DHT22;9453;50.294;18.644;2022-11-04T06:46:01;11.10;94.80
18648;DHT22;9453;50.294;18.644;2022-11-04T06:48:29;11.10;94.80
18648;DHT22;9453;50.294;18.644;2022-11-04T06:50:58;11.10;94.70
18648;DHT22;9453;50.294;18.644;2022-11-04T06:53:25;11.20;94.50
18648;DHT22;9453;50.294;18.644;2022-11-04T06:55:59;11.10;94.40
18648;DHT22;9453;50.294;18.644;2022-11-04T06:58:27;11.20;94.40
18648;DHT22;9453;50.294;18.644;2022-11-04T07:00:54;11.20;94.30
18648;DHT22;9453;50.294;18.644;2022-11-04T07:03:21;11.30;94.40
18648;DHT22;9453;50.294;18.644;2022-11-04T07:05:48;11.40;94.70
18648;DHT22;9453;50.294;18.644;2022-11-04T07:08:16;11.30;94.30
18648;DHT22;9453;50.294;18.644;2022-11-04T07:10:43;11.40;94.30
18648;DHT22;9453;50.294;18.644;2022-11-04T07:13:10;11.40;94.30
18648;DHT22;9453;50.294;18.644;2022-11-04T07:15:37;11.40;94.10
18648;DHT22;9453;50.294;18.644;2022-11-04T07:18:05;11.40;94.20
18648;DHT22;9453;50.294;18.644;2022-11-04T07:20:33;11.40;94.40
18648;DHT22;9453;50.294;18.644;2022-11-04T07:23:01;11.50;94.20
18648;DHT22;9453;50.294;18.644;2022-11-04T07:25:30;11.50;94.10
18648;DHT22;9453;50.294;18.644;2022-11-04T07:27:56;11.50;94.10
18648;DHT22;9453;50.294;18.644;2022-11-04T07:30:24;11.50;94.10
18648;DHT22;9453;50.294;18.644;2022-11-04T07:32:52;11.60;94.20
18648;DHT22;9453;50.294;18.644;2022-11-04T07:35:19;11.60;94.00
18648;DHT22;9453;50.294;18.644;2022-11-04T07:37:46;11.70;93.80
18648;DHT22;9453;50.294;18.644;2022-11-04T07:40:12;11.70;93.30
18648;DHT22;9453;50.294;18.644;2022-11-04T07:42:41;11.70;93.30
18648;DHT22;9453;50.294;18.644;2022-11-04T07:45:08;11.80;93.30
18648;DHT22;9453;50.294;18.644;2022-11-04T07:47:35;11.80;93.20
18648;DHT22;9453;50.294;18.644;2022-11-04T07:50:03;11.80;93.00
18648;DHT22;9453;50.294;18.644;2022-11-04T07:52:30;11.90;92.90
18648;DHT22;9453;50.294;18.644;2022-11-04T07:54:56;11.90;92.90
18648;DHT22;9453;50.294;18.644;2022-11-04T07:57:23;12.00;92.60
18648;DHT22;9453;50.294;18.644;2022-11-04T07:59:52;12.00;92.40
18648;DHT22;9453;50.294;18.644;2022-11-04T08:02:19;12.10;92.20
18648;DHT22;9453;50.294;18.644;2022-11-04T08:04:46;12.20;92.30
18648;DHT22;9453;50.294;18.644;2022-11-04T08:07:13;12.10;92.10
18648;DHT22;9453;50.294;18.644;2022-11-04T08:09:40;12.20;92.10
18648;DHT22;9453;50.294;18.644;2022-11-04T08:12:07;12.20;92.10
18648;DHT22;9453;50.294;18.644;2022-11-04T08:14:35;12.30;91.90
18648;DHT22;9453;50.294;18.644;2022-11-04T08:17:04;12.30;91.80
18648;DHT22;9453;50.294;18.644;2022-11-04T08:19:31;12.30;91.70
18648;DHT22;9453;50.294;18.644;2022-11-04T08:21:58;12.40;92.10
18648;DHT22;9453;50.294;18.644;2022-11-04T08:24:25;12.40;91.80
18648;DHT22;9453;50.294;18.644;2022-11-04T08:26:51;12.40;92.10
18648;DHT22;9453;50.294;18.644;2022-11-04T08:29:18;12.50;91.80
18648;DHT22;9453;50.294;18.644;2022-11-04T08:31:45;12.50;91.80
18648;DHT22;9453;50.294;18.644;2022-11-04T08:34:14;12.50;91.80
18648;DHT22;9453;50.294;18.644;2022-11-04T08:36:43;12.50;91.80
18648;DHT22;9453;50.294;18.644;2022-11-04T08:39:11;12.50;91.70
18648;DHT22;9453;50.294;18.644;2022-11-04T08:41:40;12.60;91.90
18648;DHT22;9453;50.294;18.644;2022-11-04T08:44:08;12.60;91.80
18648;DHT22;9453;50.294;18.644;2022-11-04T08:46:37;12.60;91.90
18648;DHT22;9453;50.294;18.644;2022-11-04T08:49:05;12.70;91.90
18648;DHT22;9453;50.294;18.644;2022-11-04T08:51:34;12.80;92.00
18648;DHT22;9453;50.294;18.644;2022-11-04T08:54:03;12.80;92.00
18648;DHT22;9453;50.294;18.644;2022-11-04T08:56:32;12.80;92.10
18648;DHT22;9453;50.294;18.644;2022-11-04T08:59:00;12.80;92.00
18648;DHT22;9453;50.294;18.644;2022-11-04T09:01:29;12.90;92.00
18648;DHT22;9453;50.294;18.644;2022-11-04T09:03:56;13.00;92.10
18648;DHT22;9453;50.294;18.644;2022-11-04T09:06:25;12.90;92.20
18648;DHT22;9453;50.294;18.644;2022-11-04T09:08:54;13.00;92.20
18648;DHT22;9453;50.294;18.644;2022-11-04T09:11:23;13.00;92.30
18648;DHT22;9453;50.294;18.644;2022-11-04T09:13:49;13.00;92.30
18648;DHT22;9453;50.294;18.644;2022-11-04T09:16:17;13.10;92.20
18648;DHT22;9453;50.294;18.644;2022-11-04T09:18:45;13.20;92.10
18648;DHT22;9453;50.294;18.644;2022-11-04T09:21:11;13.10;92.20
18648;DHT22;9453;50.294;18.644;2022-11-04T09:23:39;13.10;92.20
18648;DHT22;9453;50.294;18.644;2022-11-04T09:26:11;13.10;92.40
18648;DHT22;9453;50.294;18.644;2022-11-04T09:28:39;13.10;92.50
18648;DHT22;9453;50.294;18.644;2022-11-04T09:31:07;13.30;92.70
18648;DHT22;9453;50.294;18.644;2022-11-04T09:33:34;13.30;92.70
18648;DHT22;9453;50.294;18.644;2022-11-04T09:36:01;13.30;92.80
18648;DHT22;9453;50.294;18.644;2022-11-04T09:38:29;13.30;92.70
18648;DHT22;9453;50.294;18.644;2022-11-04T09:40:57;13.40;92.80
18648;DHT22;9453;50.294;18.644;2022-11-04T09:43:36;13.40;92.40
18648;DHT22;9453;50.294;18.644;2022-11-04T09:46:07;13.40;92.70
18648;DHT22;9453;50.294;18.644;2022-11-04T09:48:40;13.40;92.80
18648;DHT22;9453;50.294;18.644;2022-11-04T09:51:07;13.50;92.90
18648;DHT22;9453;50.294;18.644;2022-11-04T09:53:39;13.50;92.80
18648;DHT22;9453;50.294;18.644;2022-11-04T09:56:14;13.50;92.80
18648;DHT22;9453;50.294;18.644;2022-11-04T09:58:43;13.50;92.90
18648;DHT22;9453;50.294;18.644;2022-11-04T10:01:21;13.60;92.70
18648;DHT22;9453;50.294;18.644;2022-11-04T10:04:05;13.60;92.70
18648;DHT22;9453;50.294;18.644;2022-11-04T10:06:41;13.60;92.60
18648;DHT22;9453;50.294;18.644;2022-11-04T10:09:24;13.60;92.60
18648;DHT22;9453;50.294;18.644;2022-11-04T10:12:03;13.60;92.70
18648;DHT22;9453;50.294;18.644;2022-11-04T10:17:48;13.50;92.50
18648;DHT22;9453;50.294;18.644;2022-11-04T10:20:36;13.60;92.50
18648;DHT22;9453;50.294;18.644;2022-11-04T10:23:14;13.60;92.50
18648;DHT22;9453;50.294;18.644;2022-11-04T10:25:47;13.60;92.40
18648;DHT22;9453;50.294;18.644;2022-11-04T10:28:17;13.70;92.50
18648;DHT22;9453;50.294;18.644;2022-11-04T10:30:47;13.70;92.50
18648;DHT22;9453;50.294;18.644;2022-11-04T10:33:23;13.70;92.70
18648;DHT22;9453;50.294;18.644;2022-11-04T10:35:54;13.80;92.90
18648;DHT22;9453;50.294;18.644;2022-11-04T10:38:29;13.80;92.90
18648;DHT22;9453;50.294;18.644;2022-11-04T10:40:59;13.90;93.00
18648;DHT22;9453;50.294;18.644;2022-11-04T10:43:30;14.00;93.10
18648;DHT22;9453;50.294;18.644;2022-11-04T10:46:09;14.00;93.10
18648;DHT22;9453;50.294;18.644;2022-11-04T10:48:47;14.10;93.10
18648;DHT22;9453;50.294;18.644;2022-11-04T10:51:16;14.10;92.90
18648;DHT22;9453;50.294;18.644;2022-11-04T10:53:47;14.20;92.90
18648;DHT22;9453;50.294;18.644;2022-11-04T10:56:19;14.20;92.90
18648;DHT22;9453;50.294;18.644;2022-11-04T10:58:52;14.20;92.90
18648;DHT22;9453;50.294;18.644;2022-11-04T11:01:28;14.20;92.80
18648;DHT22;9453;50.294;18.644;2022-11-04T11:03:55;14.20;92.90
18648;DHT22;9453;50.294;18.644;2022-11-04T11:06:27;14.20;93.10
18648;DHT22;9453;50.294;18.644;2022-11-04T11:08:56;14.20;93.10
18648;DHT22;9453;50.294;18.644;2022-11-04T11:11:41;14.20;93.40
18648;DHT22;9453;50.294;18.644;2022-11-04T11:14:16;14.10;93.60
18648;DHT22;9453;50.294;18.644;2022-11-04T11:16:44;14.20;94.00
18648;DHT22;9453;50.294;18.644;2022-11-04T11:19:15;14.20;94.00
18648;DHT22;9453;50.294;18.644;2022-11-04T11:21:44;14.20;93.90
18648;DHT22;9453;50.294;18.644;2022-11-04T11:24:14;14.20;93.90
18648;DHT22;9453;50.294;18.644;2022-11-04T11:26:43;14.20;93.80
18648;DHT22;9453;50.294;18.644;2022-11-04T11:29:18;14.30;93.90
18648;DHT22;9453;50.294;18.644;2022-11-04T11:31:49;14.30;93.90
18648;DHT22;9453;50.294;18.644;2022-11-04T11:34:20;14.40;94.10
18648;DHT22;9453;50.294;18.644;2022-11-04T11:36:51;14.40;94.10
18648;DHT22;9453;50.294;18.644;2022-11-04T11:39:20;14.40;94.10
18648;DHT22;9453;50.294;18.644;2022-11-04T11:41:52;14.50;94.10
18648;DHT22;9453;50.294;18.644;2022-11-04T11:44:25;14.50;94.10
18648;DHT22;9453;50.294;18.644;2022-11-04T11:46:58;14.60;94.00
18648;DHT22;9453;50.294;18.644;2022-11-04T11:49:27;14.60;93.80
18648;DHT22;9453;50.294;18.644;2022-11-04T11:52:16;14.70;93.60
18648;DHT22;9453;50.294;18.644;2022-11-04T11:54:45;14.80;93.60
18648;DHT22;9453;50.294;18.644;2022-11-04T11:57:29;14.90;93.10
18648;DHT22;9453;50.294;18.644;2022-11-04T12:00:02;15.00;93.00
18648;DHT22;9453;50.294;18.644;2022-11-04T12:02:41;15.00;92.50
18648;DHT22;9453;50.294;18.644;2022-11-04T12:05:10;15.10;92.60
18648;DHT22;9453;50.294;18.644;2022-11-04T12:07:44;15.10;92.60
18648;DHT22;9453;50.294;18.644;2022-11-04T12:10:21;15.20;92.40
18648;DHT22;9453;50.294;18.644;2022-11-04T12:13:01;15.10;92.10
18648;DHT22;9453;50.294;18.644;2022-11-04T12:15:49;15.10;92.20
18648;DHT22;9453;50.294;18.644;2022-11-04T12:18:38;15.10;92.40
18648;DHT22;9453;50.294;18.644;2022-11-04T12:21:12;15.10;92.40
18648;DHT22;9453;50.294;18.644;2022-11-04T12:23:47;15.10;92.40
18648;DHT22;9453;50.294;18.644;2022-11-04T12:26:26;15.10;92.40
18648;DHT22;9453;50.294;18.644;2022-11-04T12:29:18;15.10;92.40
18648;DHT22;9453;50.294;18.644;2022-11-04T12:31:58;15.00;92.60
18648;DHT22;9453;50.294;18.644;2022-11-04T12:34:39;15.00;92.70
18648;DHT22;9453;50.294;18.644;2022-11-04T12:37:17;15.00;93.00
18648;DHT22;9453;50.294;18.644;2022-11-04T12:40:10;14.90;92.90
18648;DHT22;9453;50.294;18.644;2022-11-04T12:45:42;14.90;93.30
18648;DHT22;9453;50.294;18.644;2022-11-04T12:48:22;14.90;93.50
18648;DHT22;9453;50.294;18.644;2022-11-04T12:51:01;14.80;93.70
18648;DHT22;9453;50.294;18.644;2022-11-04T12:53:46;14.80;93.80
18648;DHT22;9453;50.294;18.644;2022-11-04T12:56:17;14.70;94.10
18648;DHT22;9453;50.294;18.644;2022-11-04T12:59:08;14.70;94.20
18648;DHT22;9453;50.294;18.644;2022-11-04T13:01:44;14.70;94.50
18648;DHT22;9453;50.294;18.644;2022-11-04T13:04:17;14.70;94.70
18648;DHT22;9453;50.294;18.644;2022-11-04T13:06:49;14.70;94.70
18648;DHT22;9453;50.294;18.644;2022-11-04T13:09:28;14.70;94.70
18648;DHT22;9453;50.294;18.644;2022-11-04T13:12:03;14.60;94.70
18648;DHT22;9453;50.294;18.644;2022-11-04T13:14:39;14.60;95.00
18648;DHT22;9453;50.294;18.644;2022-11-04T13:17:12;14.60;95.10
18648;DHT22;9453;50.294;18.644;2022-11-04T13:19:44;14.60;95.20
18648;DHT22;9453;50.294;18.644;2022-11-04T13:22:17;14.60;95.40
18648;DHT22;9453;50.294;18.644;2022-11-04T13:24:48;14.50;95.40
18648;DHT22;9453;50.294;18.644;2022-11-04T13:27:18;14.50;95.50
18648;DHT22;9453;50.294;18.644;2022-11-04T13:29:47;14.50;95.80
18648;DHT22;9453;50.294;18.644;2022-11-04T13:32:21;14.50;96.00
18648;DHT22;9453;50.294;18.644;2022-11-04T13:34:56;14.50;96.40
18648;DHT22;9453;50.294;18.644;2022-11-04T13:37:32;14.50;96.70
18648;DHT22;9453;50.294;18.644;2022-11-04T13:40:03;14.40;96.90
18648;DHT22;9453;50.294;18.644;2022-11-04T13:45:54;14.40;97.10
18648;DHT22;9453;50.294;18.644;2022-11-04T13:48:23;14.30;97.20
18648;DHT22;9453;50.294;18.644;2022-11-04T13:50:58;14.30;97.00
18648;DHT22;9453;50.294;18.644;2022-11-04T13:53:45;14.20;97.20
18648;DHT22;9453;50.294;18.644;2022-11-04T13:56:30;14.20;97.30
18648;DHT22;9453;50.294;18.644;2022-11-04T13:59:00;14.20;97.50
18648;DHT22;9453;50.294;18.644;2022-11-04T14:01:29;14.10;97.70
18648;DHT22;9453;50.294;18.644;2022-11-04T14:06:53;14.10;98.20
18648;DHT22;9453;50.294;18.644;2022-11-04T14:09:35;14.00;98.80
18648;DHT22;9453;50.294;18.644;2022-11-04T14:12:32;13.90;98.80
18648;DHT22;9453;50.294;18.644;2022-11-04T14:15:12;13.80;98.80
18648;DHT22;9453;50.294;18.644;2022-11-04T14:18:02;13.70;98.90
18648;DHT22;9453;50.294;18.644;2022-11-04T14:20:32;13.60;98.90
18648;DHT22;9453;50.294;18.644;2022-11-04T14:23:01;13.50;99.00
18648;DHT22;9453;50.294;18.644;2022-11-04T14:25:33;13.50;99.10
18648;DHT22;9453;50.294;18.644;2022-11-04T14:28:15;13.50;99.30
18648;DHT22;9453;50.294;18.644;2022-11-04T14:30:47;13.50;99.10
18648;DHT22;9453;50.294;18.644;2022-11-04T14:33:39;13.50;99.20
18648;DHT22;9453;50.294;18.644;2022-11-04T14:36:29;13.40;99.70
18648;DHT22;9453;50.294;18.644;2022-11-04T14:39:02;13.40;99.80
18648;DHT22;9453;50.294;18.644;2022-11-04T14:44:35;13.40;99.90
18648;DHT22;9453;50.294;18.644;2022-11-04T14:47:14;13.50;99.90
18648;DHT22;9453;50.294;18.644;2022-11-04T14:49:44;13.50;99.90
18648;DHT22;9453;50.294;18.644;2022-11-04T14:52:16;13.50;99.90
18648;DHT22;9453;50.294;18.644;2022-11-04T14:54:43;13.40;99.90
18648;DHT22;9453;50.294;18.644;2022-11-04T14:57:14;13.30;99.90
18648;DHT22;9453;50.294;18.644;2022-11-04T14:59:43;13.30;99.90
18648;DHT22;9453;50.294;18.644;2022-11-04T15:02:14;13.20;99.90
18648;DHT22;9453;50.294;18.644;2022-11-04T15:04:47;13.20;99.90
18648;DHT22;9453;50.294;18.644;2022-11-04T15:07:24;13.10;99.90
18648;DHT22;9453;50.294;18.644;2022-11-04T15:09:51;13.10;99.90
18648;DHT22;9453;50.294;18.644;2022-11-04T15:12:18;13.10;99.90
18648;DHT22;9453;50.294;18.644;2022-11-04T15:18:14;13.10;99.90
18648;DHT22;9453;50.294;18.644;2022-11-04T15:20:46;13.00;99.90
18648;DHT22;9453;50.294;18.644;2022-11-04T15:23:22;12.90;99.90
18648;DHT22;9453;50.294;18.644;2022-11-04T15:25:51;12.70;99.90
18648;DHT22;9453;50.294;18.644;2022-11-04T15:28:21;12.90;99.90
18648;DHT22;9453;50.294;18.644;2022-11-04T15:31:01;12.90;99.90
18648;DHT22;9453;50.294;18.644;2022-11-04T15:33:33;12.90;99.90
18648;DHT22;9453;50.294;18.644;2022-11-04T15:36:01;13.00;99.90
18648;DHT22;9453;50.294;18.644;2022-11-04T15:38:29;13.00;99.90
18648;DHT22;9453;50.294;18.644;2022-11-04T15:40:58;13.00;99.90
18648;DHT22;9453;50.294;18.644;2022-11-04T15:43:46;13.00;99.90
18648;DHT22;9453;50.294;18.644;2022-11-04T15:46:16;12.90;99.90
18648;DHT22;9453;50.294;18.644;2022-11-04T15:48:59;13.00;99.90
18648;DHT22;9453;50.294;18.644;2022-11-04T15:51:28;13.00;99.90
18648;DHT22;9453;50.294;18.644;2022-11-04T15:53:57;12.90;99.90
18648;DHT22;9453;50.294;18.644;2022-11-04T15:56:27;12.80;99.90
18648;DHT22;9453;50.294;18.644;2022-11-04T15:58:56;12.80;99.90
18648;DHT22;9453;50.294;18.644;2022-11-04T16:01:24;12.80;99.90
18648;DHT22;9453;50.294;18.644;2022-11-04T16:03:55;12.80;99.90
18648;DHT22;9453;50.294;18.644;2022-11-04T16:06:34;12.80;99.90
18648;DHT22;9453;50.294;18.644;2022-11-04T16:09:05;12.70;99.90
18648;DHT22;9453;50.294;18.644;2022-11-04T16:11:32;12.70;99.90
18648;DHT22;9453;50.294;18.644;2022-11-04T16:14:21;12.70;99.90
18648;DHT22;9453;50.294;18.644;2022-11-04T16:16:49;12.70;99.90
18648;DHT22;9453;50.294;18.644;2022-11-04T16:19:21;12.70;99.90
18648;DHT22;9453;50.294;18.644;2022-11-04T16:21:58;12.80;99.90
18648;DHT22;9453;50.294;18.644;2022-11-04T16:24:31;12.70;99.90
18648;DHT22;9453;50.294;18.644;2022-11-04T16:26:59;12.80;99.90
18648;DHT22;9453;50.294;18.644;2022-11-04T16:29:28;12.70;99.90
18648;DHT22;9453;50.294;18.644;2022-11-04T16:32:16;12.70;99.90
18648;DHT22;9453;50.294;18.644;2022-11-04T16:34:47;12.70;99.90
18648;DHT22;9453;50.294;18.644;2022-11-04T16:37:19;12.80;99.90
18648;DHT22;9453;50.294;18.644;2022-11-04T16:39:48;12.80;99.90
18648;DHT22;9453;50.294;18.644;2022-11-04T16:42:16;12.80;99.90
18648;DHT22;9453;50.294;18.644;2022-11-04T16:44:50;12.80;99.90
18648;DHT22;9453;50.294;18.644;2022-11-04T16:47:19;12.80;99.90
18648;DHT22;9453;50.294;18.644;2022-11-04T16:49:47;12.80;99.90
18648;DHT22;9453;50.294;18.644;2022-11-04T16:52:17;12.80;99.90
18648;DHT22;9453;50.294;18.644;2022-11-04T16:54:47;12.80;99.90
18648;DHT22;9453;50.294;18.644;2022-11-04T16:57:15;12.80;99.90
18648;DHT22;9453;50.294;18.644;2022-11-04T16:59:42;12.80;99.90
18648;DHT22;9453;50.294;18.644;2022-11-04T17:02:25;12.90;99.90
18648;DHT22;9453;50.294;18.644;2022-11-04T17:04:54;12.80;99.90
18648;DHT22;9453;50.294;18.644;2022-11-04T17:07:21;12.80;99.90
18648;DHT22;9453;50.294;18.644;2022-11-04T17:09:48;12.90;99.90
18648;DHT22;9453;50.294;18.644;2022-11-04T17:12:15;12.80;99.90
18648;DHT22;9453;50.294;18.644;2022-11-04T17:14:42;12.80;99.90
18648;DHT22;9453;50.294;18.644;2022-11-04T17:17:10;13.00;99.90
18648;DHT22;9453;50.294;18.644;2022-11-04T17:19:40;12.70;99.90
18648;DHT22;9453;50.294;18.644;2022-11-04T17:22:10;12.80;99.90
18648;DHT22;9453;50.294;18.644;2022-11-04T17:24:38;12.70;99.90
18648;DHT22;9453;50.294;18.644;2022-11-04T17:27:05;12.70;99.90
18648;DHT22;9453;50.294;18.644;2022-11-04T17:29:32;12.80;99.90
18648;DHT22;9453;50.294;18.644;2022-11-04T17:32:02;12.80;99.90
18648;DHT22;9453;50.294;18.644;2022-11-04T17:34:29;12.80;99.90
18648;DHT22;9453;50.294;18.644;2022-11-04T17:36:56;12.90;99.90
18648;DHT22;9453;50.294;18.644;2022-11-04T17:39:24;12.80;99.90
18648;DHT22;9453;50.294;18.644;2022-11-04T17:41:54;12.80;99.90
18648;DHT22;9453;50.294;18.644;2022-11-04T17:44:38;12.80;99.90
18648;DHT22;9453;50.294;18.644;2022-11-04T17:47:08;12.80;99.90
18648;DHT22;9453;50.294;18.644;2022-11-04T17:49:35;12.80;99.90
18648;DHT22;9453;50.294;18.644;2022-11-04T17:52:04;12.80;99.90
18648;DHT22;9453;50.294;18.644;2022-11-04T17:54:33;12.80;99.90
18648;DHT22;9453;50.294;18.644;2022-11-04T17:57:01;12.80;99.90
18648;DHT22;9453;50.294;18.644;2022-11-04T17:59:28;12.80;99.90
18648;DHT22;9453;50.294;18.644;2022-11-04T18:01:57;12.80;99.90
18648;DHT22;9453;50.294;18.644;2022-11-04T18:04:25;12.70;99.90
18648;DHT22;9453;50.294;18.644;2022-11-04T18:06:58;12.70;99.90
18648;DHT22;9453;50.294;18.644;2022-11-04T18:09:25;12.70;99.90
18648;DHT22;9453;50.294;18.644;2022-11-04T18:11:53;12.70;99.90
18648;DHT22;9453;50.294;18.644;2022-11-04T18:14:37;12.70;99.90
18648;DHT22;9453;50.294;18.644;2022-11-04T18:17:05;12.70;99.90
18648;DHT22;9453;50.294;18.644;2022-11-04T18:19:31;12.70;99.90
18648;DHT22;9453;50.294;18.644;2022-11-04T18:22:00;12.70;99.90
18648;DHT22;9453;50.294;18.644;2022-11-04T18:24:27;12.70;99.90
18648;DHT22;9453;50.294;18.644;2022-11-04T18:26:56;12.60;99.90
18648;DHT22;9453;50.294;18.644;2022-11-04T18:29:24;12.70;99.90
18648;DHT22;9453;50.294;18.644;2022-11-04T18:31:52;12.60;99.90
18648;DHT22;9453;50.294;18.644;2022-11-04T18:34:19;12.60;99.90
18648;DHT22;9453;50.294;18.644;2022-11-04T18:36:49;12.50;99.90
18648;DHT22;9453;50.294;18.644;2022-11-04T18:39:17;12.50;99.90
18648;DHT22;9453;50.294;18.644;2022-11-04T18:41:45;12.50;99.90
18648;DHT22;9453;50.294;18.644;2022-11-04T18:44:18;12.50;99.90
18648;DHT22;9453;50.294;18.644;2022-11-04T18:46:46;12.50;99.90
18648;DHT22;9453;50.294;18.644;2022-11-04T18:49:14;12.40;99.90
18648;DHT22;9453;50.294;18.644;2022-11-04T18:51:45;12.50;99.90
18648;DHT22;9453;50.294;18.644;2022-11-04T18:54:12;12.40;99.90
18648;DHT22;9453;50.294;18.644;2022-11-04T18:56:43;12.40;99.90
18648;DHT22;9453;50.294;18.644;2022-11-04T18:59:11;12.40;99.90
18648;DHT22;9453;50.294;18.644;2022-11-04T19:01:44;12.40;99.90
18648;DHT22;9453;50.294;18.644;2022-11-04T19:04:18;12.40;99.90
18648;DHT22;9453;50.294;18.644;2022-11-04T19:06:47;12.50;99.90
18648;DHT22;9453;50.294;18.644;2022-11-04T19:09:17;12.50;99.90
18648;DHT22;9453;50.294;18.644;2022-11-04T19:11:45;12.50;99.90
18648;DHT22;9453;50.294;18.644;2022-11-04T19:14:13;12.50;99.90
18648;DHT22;9453;50.294;18.644;2022-11-04T19:16:42;12.50;99.90
18648;DHT22;9453;50.294;18.644;2022-11-04T19:19:13;12.50;99.90
18648;DHT22;9453;50.294;18.644;2022-11-04T19:21:41;12.50;99.90
18648;DHT22;9453;50.294;18.644;2022-11-04T19:24:08;12.50;99.90
18648;DHT22;9453;50.294;18.644;2022-11-04T19:26:36;12.50;99.90
18648;DHT22;9453;50.294;18.644;2022-11-04T19:29:05;12.50;99.90
18648;DHT22;9453;50.294;18.644;2022-11-04T19:31:33;12.50;99.90
18648;DHT22;9453;50.294;18.644;2022-11-04T19:34:02;12.50;99.90
18648;DHT22;9453;50.294;18.644;2022-11-04T19:36:30;12.50;99.90
18648;DHT22;9453;50.294;18.644;2022-11-04T19:39:03;12.50;99.90
18648;DHT22;9453;50.294;18.644;2022-11-04T19:41:30;12.50;99.90
18648;DHT22;9453;50.294;18.644;2022-11-04T19:44:16;12.50;99.90
18648;DHT22;9453;50.294;18.644;2022-11-04T19:46:43;12.50;99.90
18648;DHT22;9453;50.294;18.644;2022-11-04T19:49:13;12.60;99.90
18648;DHT22;9453;50.294;18.644;2022-11-04T19:51:40;12.60;99.90
18648;DHT22;9453;50.294;18.644;2022-11-04T19:54:08;12.60;99.90
18648;DHT22;9453;50.294;18.644;2022-11-04T19:56:36;12.60;99.90
18648;DHT22;9453;50.294;18.644;2022-11-04T19:59:04;12.60;99.90
18648;DHT22;9453;50.294;18.644;2022-11-04T20:01:32;12.60;99.90
18648;DHT22;9453;50.294;18.644;2022-11-04T20:03:59;12.60;99.90
18648;DHT22;9453;50.294;18.644;2022-11-04T20:06:29;12.60;99.90
18648;DHT22;9453;50.294;18.644;2022-11-04T20:09:00;12.60;99.90
18648;DHT22;9453;50.294;18.644;2022-11-04T20:11:29;12.60;99.90
18648;DHT22;9453;50.294;18.644;2022-11-04T20:13:56;12.60;99.90
18648;DHT22;9453;50.294;18.644;2022-11-04T20:16:23;12.60;99.90
18648;DHT22;9453;50.294;18.644;2022-11-04T20:18:52;12.70;99.90
18648;DHT22;9453;50.294;18.644;2022-11-04T20:21:22;12.60;99.90
18648;DHT22;9453;50.294;18.644;2022-11-04T20:23:54;12.60;99.90
18648;DHT22;9453;50.294;18.644;2022-11-04T20:26:22;12.60;99.90
18648;DHT22;9453;50.294;18.644;2022-11-04T20:28:49;12.70;99.90
18648;DHT22;9453;50.294;18.644;2022-11-04T20:31:21;12.60;99.90
18648;DHT22;9453;50.294;18.644;2022-11-04T20:33:50;12.60;99.90
18648;DHT22;9453;50.294;18.644;2022-11-04T20:36:18;12.60;99.90
18648;DHT22;9453;50.294;18.644;2022-11-04T20:38:45;12.60;99.90
18648;DHT22;9453;50.294;18.644;2022-11-04T20:41:15;12.60;99.90
18648;DHT22;9453;50.294;18.644;2022-11-04T20:43:45;12.60;99.90
18648;DHT22;9453;50.294;18.644;2022-11-04T20:46:14;12.60;99.90
18648;DHT22;9453;50.294;18.644;2022-11-04T20:48:41;12.60;99.90
18648;DHT22;9453;50.294;18.644;2022-11-04T20:51:10;12.60;99.90
18648;DHT22;9453;50.294;18.644;2022-11-04T20:53:38;12.60;99.90
18648;DHT22;9453;50.294;18.644;2022-11-04T20:56:07;12.50;99.90
18648;DHT22;9453;50.294;18.644;2022-11-04T20:58:38;12.50;99.90
18648;DHT22;9453;50.294;18.644;2022-11-04T21:01:07;12.50;99.90
18648;DHT22;9453;50.294;18.644;2022-11-04T21:03:34;12.50;99.90
18648;DHT22;9453;50.294;18.644;2022-11-04T21:06:01;12.50;99.90
18648;DHT22;9453;50.294;18.644;2022-11-04T21:08:32;12.50;99.90
18648;DHT22;9453;50.294;18.644;2022-11-04T21:11:00;12.40;99.90
18648;DHT22;9453;50.294;18.644;2022-11-04T21:13:27;12.50;99.90
18648;DHT22;9453;50.294;18.644;2022-11-04T21:15:57;12.40;99.90
18648;DHT22;9453;50.294;18.644;2022-11-04T21:18:25;12.40;99.90
18648;DHT22;9453;50.294;18.644;2022-11-04T21:20:52;12.40;99.90
18648;DHT22;9453;50.294;18.644;2022-11-04T21:23:22;12.40;99.90
18648;DHT22;9453;50.294;18.644;2022-11-04T21:25:51;12.40;99.90
18648;DHT22;9453;50.294;18.644;2022-11-04T21:28:19;12.40;99.90
18648;DHT22;9453;50.294;18.644;2022-11-04T21:30:49;12.30;99.90
18648;DHT22;9453;50.294;18.644;2022-11-04T21:33:17;12.30;99.90
18648;DHT22;9453;50.294;18.644;2022-11-04T21:35:44;12.50;99.90